Time;durP1;ratioP1;P1;durP2;ratioP2;P2;SDS_P1;SDS_P2;PMS_P1;PMS_P2;Temp;Humidity;BMP_temperature;BMP_pressure;BME280_temperature;BME280_humidity;BME280_pressure;Samples;Min_cycle;Max_cycle;Signal;HPM_P1;HPM_P2
2022/01/04 00:03:18;;;;;;;7.03;4.50;;;14.90;99.90;;;;;;10213976;29;20585;-79
2022/01/04 00:08:23;;;;;;;9.90;4.60;;;14.80;99.90;;;;;;10195273;29;20305;-79
2022/01/04 00:13:25;;;;;;;7.17;4.13;;;14.90;99.90;;;;;;10195746;29;20258;-78
2022/01/04 00:18:28;;;;;;;7.40;4.57;;;14.70;99.90;;;;;;10237706;28;20277;-79
2022/01/04 00:23:31;;;;;;;5.57;4.10;;;14.80;99.90;;;;;;10209818;29;20218;-79
2022/01/04 00:28:33;;;;;;;6.27;4.17;;;14.80;99.90;;;;;;10194488;29;20302;-79
2022/01/04 00:33:37;;;;;;;5.17;4.10;;;14.80;99.90;;;;;;10211288;29;20239;-79
2022/01/04 00:38:39;;;;;;;4.83;4.07;;;14.90;99.90;;;;;;10239824;29;20292;-78
2022/01/04 00:43:44;;;;;;;5.13;4.20;;;14.80;99.90;;;;;;10217887;29;20245;-79
2022/01/04 00:54:09;;;;;;;6.53;3.97;;;14.60;99.90;;;;;;10211177;29;20238;-79
2022/01/04 00:59:12;;;;;;;8.43;3.80;;;14.80;99.90;;;;;;10212078;29;20274;-79
2022/01/04 01:04:15;;;;;;;7.03;4.03;;;14.70;99.90;;;;;;10232968;28;20209;-79
2022/01/04 01:09:19;;;;;;;5.27;3.93;;;14.70;99.90;;;;;;10210350;29;20263;-79
2022/01/04 01:14:22;;;;;;;10.97;4.13;;;14.60;99.90;;;;;;10220170;29;20252;-79
2022/01/04 01:19:24;;;;;;;6.50;3.43;;;14.20;99.90;;;;;;10208036;29;20262;-79
2022/01/04 01:24:27;;;;;;;8.53;4.10;;;13.80;99.90;;;;;;10192125;29;20235;-79
2022/01/04 01:29:29;;;;;;;7.03;3.40;;;13.60;99.90;;;;;;10209238;29;20317;-79
2022/01/04 01:34:33;;;;;;;5.70;3.70;;;12.70;99.90;;;;;;10209955;29;20242;-79
2022/01/04 01:39:36;;;;;;;4.97;3.63;;;13.20;99.90;;;;;;10215167;29;20260;-79
2022/01/04 01:44:39;;;;;;;6.20;3.93;;;13.50;99.90;;;;;;10248479;29;20799;-79
2022/01/04 01:49:41;;;;;;;6.50;4.20;;;13.50;99.90;;;;;;10218059;28;20283;-79
2022/01/04 01:54:44;;;;;;;4.70;3.27;;;13.60;99.90;;;;;;10191816;29;20698;-79
2022/01/04 01:59:46;;;;;;;4.33;3.07;;;13.90;99.90;;;;;;10226967;29;20262;-79
2022/01/04 02:04:49;;;;;;;5.20;3.30;;;13.90;99.90;;;;;;10247616;29;20230;-79
2022/01/04 02:10:02;;;;;;;5.77;3.33;;;14.00;99.90;;;;;;10225152;28;20313;-79
2022/01/04 02:15:08;;;;;;;5.03;3.63;;;14.10;99.90;;;;;;10247060;28;20220;-79
2022/01/04 02:20:12;;;;;;;4.93;3.63;;;13.50;99.90;;;;;;10247321;29;20793;-79
2022/01/04 02:25:14;;;;;;;6.63;3.00;;;13.40;99.90;;;;;;10212342;29;20234;-79
2022/01/04 02:30:20;;;;;;;8.00;3.63;;;12.60;99.90;;;;;;10225516;29;20249;-79
2022/01/04 02:35:30;;;;;;;5.17;3.57;;;12.40;99.90;;;;;;10239296;29;20238;-79
2022/01/04 02:40:33;;;;;;;8.20;4.13;;;11.90;99.90;;;;;;10218451;28;20253;-79
2022/01/04 02:45:35;;;;;;;7.60;4.40;;;10.70;99.90;;;;;;10204087;29;20272;-79
2022/01/04 02:50:39;;;;;;;7.33;4.00;;;10.20;99.90;;;;;;10206500;29;20241;-79
2022/01/04 02:55:41;;;;;;;5.33;3.90;;;9.60;99.90;;;;;;10229595;29;20300;-79
2022/01/04 03:00:45;;;;;;;9.53;4.83;;;11.10;99.90;;;;;;10213210;29;20291;-79
2022/01/04 03:05:48;;;;;;;6.70;4.63;;;9.80;99.90;;;;;;10246327;29;20955;-79
2022/01/04 03:10:50;;;;;;;6.43;3.93;;;10.00;99.90;;;;;;10242704;29;20270;-79
2022/01/04 03:15:53;;;;;;;6.57;4.23;;;9.50;99.90;;;;;;10205681;29;20251;-79
2022/01/04 03:20:55;;;;;;;7.90;5.03;;;10.30;99.90;;;;;;10230032;29;20722;-79
2022/01/04 03:25:58;;;;;;;5.17;4.30;;;10.70;99.90;;;;;;10216952;28;20215;-79
2022/01/04 03:31:00;;;;;;;6.00;4.20;;;11.30;99.90;;;;;;10218936;29;20280;-79
2022/01/04 03:36:04;;;;;;;4.93;3.30;;;11.20;99.90;;;;;;10254039;29;20958;-79
2022/01/04 03:41:08;;;;;;;4.47;3.33;;;11.80;99.90;;;;;;10225086;28;20643;-79
2022/01/04 03:46:11;;;;;;;8.33;4.63;;;11.40;99.90;;;;;;10224021;29;20214;-79
2022/01/04 03:51:14;;;;;;;6.23;4.10;;;10.00;99.90;;;;;;10211555;29;20237;-79
2022/01/04 03:56:16;;;;;;;6.87;4.20;;;11.00;99.90;;;;;;10196220;29;20612;-79
2022/01/04 04:01:20;;;;;;;6.07;3.83;;;11.10;99.90;;;;;;10222655;29;20899;-79
2022/01/04 04:06:23;;;;;;;4.40;3.77;;;10.60;99.90;;;;;;10229765;29;20238;-79
2022/01/04 04:11:25;;;;;;;7.93;4.60;;;10.40;99.90;;;;;;10212413;29;20368;-79
2022/01/04 04:16:28;;;;;;;7.80;5.43;;;9.20;99.90;;;;;;10231230;29;20266;-79
2022/01/04 04:21:31;;;;;;;8.13;4.70;;;8.60;99.90;;;;;;10228269;29;20254;-79
2022/01/04 04:26:33;;;;;;;9.33;5.33;;;8.10;99.90;;;;;;10234221;28;20699;-79
2022/01/04 04:31:36;;;;;;;8.57;5.03;;;8.10;99.90;;;;;;10250317;29;20245;-79
2022/01/04 04:36:39;;;;;;;9.10;4.90;;;8.10;99.90;;;;;;10243734;28;20231;-79
2022/01/04 04:41:41;;;;;;;8.73;6.07;;;7.50;99.90;;;;;;10210757;29;20798;-79
2022/01/04 04:46:44;;;;;;;9.97;5.80;;;7.50;99.90;;;;;;10193981;29;20234;-79
2022/01/04 04:51:47;;;;;;;15.57;8.33;;;7.30;99.90;;;;;;10234992;29;20666;-79
2022/01/04 04:56:50;;;;;;;18.63;9.90;;;7.10;99.90;;;;;;10238884;28;20234;-79
2022/01/04 05:01:53;;;;;;;20.63;13.43;;;7.60;99.90;;;;;;10212847;29;20308;-79
2022/01/04 05:06:56;;;;;;;14.13;9.63;;;8.10;99.90;;;;;;10219620;29;20290;-79
2022/01/04 05:11:58;;;;;;;14.27;7.20;;;8.00;99.90;;;;;;10192795;29;20322;-79
2022/01/04 05:17:00;;;;;;;13.40;8.17;;;8.00;99.90;;;;;;10197435;29;20234;-79
2022/01/04 05:22:03;;;;;;;11.33;7.23;;;8.70;99.90;;;;;;10215411;29;20294;-79
2022/01/04 05:27:06;;;;;;;12.73;7.03;;;8.90;99.90;;;;;;10192328;29;20835;-79
2022/01/04 05:32:08;;;;;;;12.67;8.23;;;8.30;99.90;;;;;;10210485;29;20246;-79
2022/01/04 05:37:11;;;;;;;15.43;8.70;;;8.90;99.90;;;;;;10242774;28;20302;-79
2022/01/04 05:42:13;;;;;;;21.23;10.50;;;9.00;99.90;;;;;;10215929;29;20660;-79
2022/01/04 05:47:15;;;;;;;6.77;4.43;;;8.60;99.90;;;;;;10207206;29;20238;-79
2022/01/04 05:52:18;;;;;;;13.73;8.57;;;9.00;99.90;;;;;;10235671;29;20291;-79
2022/01/04 05:57:20;;;;;;;12.73;8.00;;;9.40;99.90;;;;;;10209111;29;20238;-79
2022/01/04 06:02:23;;;;;;;36.73;18.50;;;8.70;99.90;;;;;;10195542;29;20215;-78
2022/01/04 06:07:26;;;;;;;44.40;23.53;;;8.00;99.90;;;;;;10209101;29;20291;-78
2022/01/04 06:17:41;;;;;;;16.27;11.17;;;7.90;99.90;;;;;;10227099;29;20755;-79
2022/01/04 06:22:43;;;;;;;26.23;13.03;;;8.00;99.90;;;;;;10245730;29;20272;-79
2022/01/04 06:27:50;;;;;;;22.07;12.90;;;7.50;99.90;;;;;;10222690;29;20306;-79
2022/01/04 06:32:53;;;;;;;21.43;13.93;;;7.40;99.90;;;;;;10218526;29;20298;-79
2022/01/04 06:37:55;;;;;;;6.27;4.20;;;7.40;99.90;;;;;;10239848;29;20312;-79
2022/01/04 06:42:58;;;;;;;18.93;10.83;;;9.10;99.90;;;;;;10235800;29;20277;-79
2022/01/04 06:48:00;;;;;;;19.87;9.73;;;10.20;99.90;;;;;;10224557;29;20267;-82
2022/01/04 06:53:03;;;;;;;26.87;15.77;;;10.30;99.90;;;;;;10226238;28;20758;-80
2022/01/04 06:58:06;;;;;;;18.63;10.93;;;8.00;99.90;;;;;;10214252;29;20293;-78
2022/01/04 07:03:08;;;;;;;26.73;12.60;;;9.60;99.90;;;;;;10226221;23;20278;-91
2022/01/04 07:08:11;;;;;;;21.93;13.20;;;10.90;99.90;;;;;;10196040;29;20243;-91
2022/01/04 07:40:49;;;;;;;16.90;9.80;;;12.50;99.90;;;;;;6489098;23;20321;-91
2022/01/04 07:45:52;;;;;;;21.53;11.33;;;12.80;99.90;;;;;;10210906;29;20305;-91
2022/01/04 07:50:58;;;;;;;20.20;12.53;;;13.20;99.90;;;;;;10193534;29;20318;-91
2022/01/04 07:56:04;;;;;;;15.83;10.03;;;11.90;99.90;;;;;;10194536;29;20234;-90
2022/01/04 08:01:07;;;;;;;19.90;10.73;;;10.80;99.90;;;;;;10224550;29;20262;-91
2022/01/04 08:06:09;;;;;;;22.63;13.03;;;10.40;99.90;;;;;;10207599;29;20297;-90
2022/01/04 08:11:12;;;;;;;18.53;11.47;;;12.40;99.90;;;;;;10191081;29;20246;-89
2022/01/04 08:16:15;;;;;;;21.30;12.07;;;12.50;99.90;;;;;;10208603;29;20243;-90
2022/01/04 08:21:18;;;;;;;16.43;10.17;;;12.20;99.90;;;;;;10190937;29;20295;-90
2022/01/04 08:26:20;;;;;;;17.47;9.37;;;12.30;99.90;;;;;;10192346;29;20303;-90
2022/01/04 08:31:23;;;;;;;18.77;10.73;;;12.40;99.90;;;;;;10175602;29;20246;-90
2022/01/04 08:36:28;;;;;;;14.70;9.07;;;12.20;99.90;;;;;;10207291;29;20235;-89
2022/01/04 08:41:30;;;;;;;18.90;10.37;;;11.90;99.90;;;;;;10189308;29;20739;-90
2022/01/04 08:46:35;;;;;;;14.33;9.33;;;12.70;99.90;;;;;;10190812;29;20843;-89
2022/01/04 08:51:38;;;;;;;16.80;10.77;;;13.30;99.90;;;;;;10207640;29;20243;-90
2022/01/04 08:56:41;;;;;;;19.63;11.03;;;13.80;99.90;;;;;;10202689;29;20521;-91
2022/01/04 09:01:43;;;;;;;16.27;10.37;;;13.30;99.90;;;;;;10207429;29;20254;-91
2022/01/04 09:06:46;;;;;;;14.40;9.03;;;12.00;99.90;;;;;;10189603;29;20238;-91
2022/01/04 09:11:49;;;;;;;22.47;10.67;;;11.50;99.90;;;;;;10206582;29;20244;-91
2022/01/04 09:22:13;;;;;;;16.13;10.10;;;11.40;99.90;;;;;;10207048;29;20316;-88
2022/01/04 09:27:16;;;;;;;26.70;14.83;;;10.80;99.90;;;;;;10204645;29;20237;-91
2022/01/04 09:32:19;;;;;;;22.37;13.33;;;10.90;99.90;;;;;;10204022;29;20653;-89
2022/01/04 09:37:21;;;;;;;16.77;10.73;;;11.50;99.90;;;;;;10205917;29;20321;-89
2022/01/04 09:42:25;;;;;;;23.73;11.67;;;12.90;99.90;;;;;;10189208;29;20298;-90
2022/01/04 09:47:29;;;;;;;19.53;10.33;;;11.30;99.90;;;;;;10190789;29;20314;-89
2022/01/04 09:52:32;;;;;;;21.13;12.67;;;10.30;99.90;;;;;;10191412;29;20247;-90
2022/01/04 09:57:34;;;;;;;14.97;9.23;;;9.90;99.90;;;;;;10208252;29;20677;-90
2022/01/04 10:02:37;;;;;;;14.10;9.27;;;9.50;99.90;;;;;;10210556;29;20321;-90
2022/01/04 10:07:40;;;;;;;18.63;11.17;;;9.70;99.90;;;;;;10211047;29;20204;-90
2022/01/04 10:12:55;;;;;;;13.83;9.47;;;10.10;99.90;;;;;;10210484;29;20261;-91
2022/01/04 10:18:00;;;;;;;14.07;9.60;;;9.50;99.90;;;;;;10210962;29;20563;-90
2022/01/04 10:23:18;;;;;;;17.67;11.63;;;10.50;99.90;;;;;;10211168;29;20595;-90
2022/01/04 10:28:32;;;;;;;27.73;12.83;;;11.30;99.90;;;;;;10178451;29;20758;-89
2022/01/04 10:33:36;;;;;;;17.23;11.03;;;11.20;99.90;;;;;;10194970;29;20837;-89
2022/01/04 10:38:43;;;;;;;12.10;8.07;;;11.20;99.90;;;;;;10202578;29;20219;-90
2022/01/04 10:43:50;;;;;;;15.40;9.17;;;10.40;99.90;;;;;;10179512;29;20260;-90
2022/01/04 10:48:53;;;;;;;13.83;9.50;;;10.80;99.90;;;;;;10180688;29;20213;-90
2022/01/04 10:54:00;;;;;;;11.33;8.83;;;11.30;99.90;;;;;;10166955;29;20221;-91
2022/01/04 10:59:10;;;;;;;13.57;8.83;;;11.70;99.90;;;;;;10163147;29;20260;-91
2022/01/04 11:04:20;;;;;;;15.70;10.30;;;11.10;99.90;;;;;;10201603;29;20216;-90
2022/01/04 11:09:23;;;;;;;11.77;8.57;;;11.90;99.90;;;;;;10183847;29;20227;-90
2022/01/04 11:14:25;;;;;;;21.20;10.33;;;12.70;99.90;;;;;;10185604;29;20210;-90
2022/01/04 11:19:28;;;;;;;13.63;8.87;;;12.70;99.90;;;;;;10208049;29;20243;-89
2022/01/04 11:24:32;;;;;;;11.37;7.83;;;12.40;99.90;;;;;;10210754;29;20193;-90
2022/01/04 11:29:41;;;;;;;17.83;10.57;;;12.30;99.90;;;;;;10206374;29;20204;-90
2022/01/04 11:35:12;;;;;;;13.30;9.07;;;12.00;99.90;;;;;;10186212;29;20246;-90
2022/01/04 11:40:26;;;;;;;12.33;8.73;;;12.10;99.90;;;;;;10201646;28;20258;-88
2022/01/04 11:45:44;;;;;;;12.43;7.90;;;12.30;99.90;;;;;;10216915;29;20219;-89
2022/01/04 11:50:47;;;;;;;15.77;9.57;;;12.30;99.90;;;;;;10210848;29;20205;-91
2022/01/04 11:56:03;;;;;;;16.10;8.53;;;14.00;99.90;;;;;;10202938;29;20212;-92
2022/01/04 12:01:06;;;;;;;11.93;7.37;;;13.80;99.90;;;;;;10219038;29;20283;-92
2022/01/04 12:06:10;;;;;;;13.67;6.63;;;13.90;99.90;;;;;;10221434;29;20254;-92
2022/01/04 12:11:36;;;;;;;11.43;5.93;;;12.90;99.90;;;;;;10202032;29;20258;-92
2022/01/04 12:16:42;;;;;;;8.60;5.67;;;11.90;99.90;;;;;;10193206;29;20258;-92
2022/01/04 12:22:00;;;;;;;10.70;6.83;;;11.70;99.90;;;;;;10222134;29;20223;-93
2022/01/04 12:27:08;;;;;;;12.00;7.20;;;11.90;99.90;;;;;;10203306;29;20210;-91
2022/01/04 12:32:20;;;;;;;13.77;8.10;;;11.50;99.90;;;;;;10186452;29;20221;-91
2022/01/04 12:37:23;;;;;;;10.57;7.27;;;11.60;99.90;;;;;;10216230;29;20220;-92
2022/01/04 12:42:25;;;;;;;8.27;6.07;;;11.30;99.90;;;;;;10213014;29;20668;-91
2022/01/04 12:47:28;;;;;;;15.70;8.37;;;11.20;99.90;;;;;;10193042;29;20250;-92
2022/01/04 12:52:31;;;;;;;13.17;8.03;;;11.00;99.90;;;;;;10178050;29;20211;-92
2022/01/04 12:57:33;;;;;;;10.90;8.03;;;11.10;99.90;;;;;;10193326;29;20248;-91
2022/01/04 13:02:36;;;;;;;10.37;6.57;;;11.20;99.90;;;;;;10210340;29;20735;-91
2022/01/04 13:07:39;;;;;;;12.07;9.70;;;11.20;99.90;;;;;;10192245;29;20239;-91
2022/01/04 13:12:48;;;;;;;12.97;10.33;;;11.20;99.90;;;;;;10206907;29;20240;-92
2022/01/04 13:17:53;;;;;;;11.40;8.70;;;11.00;99.90;;;;;;10192415;29;20264;-92
2022/01/04 13:22:55;;;;;;;14.50;10.10;;;11.00;99.90;;;;;;10212833;29;20263;-91
2022/01/04 13:28:04;;;;;;;13.93;10.57;;;11.10;99.90;;;;;;10190555;29;20209;-92
2022/01/04 13:33:10;;;;;;;10.37;8.10;;;11.20;99.90;;;;;;10206013;29;20245;-93
2022/01/04 13:38:19;;;;;;;9.37;6.33;;;11.30;99.90;;;;;;10206894;29;20248;-92
2022/01/04 13:43:29;;;;;;;15.10;9.70;;;11.60;99.90;;;;;;10205346;29;20308;-91
2022/01/04 13:48:35;;;;;;;18.60;13.67;;;11.80;99.90;;;;;;10187135;29;20233;-92
2022/01/04 13:53:42;;;;;;;15.27;10.80;;;11.10;99.90;;;;;;10190348;29;20236;-91
2022/01/04 13:58:45;;;;;;;16.23;11.47;;;11.00;99.90;;;;;;10185241;29;20243;-92
2022/01/04 14:03:50;;;;;;;17.67;11.77;;;10.80;99.90;;;;;;10197302;29;20729;-91
2022/01/04 14:08:53;;;;;;;16.03;11.53;;;10.80;99.90;;;;;;10190071;29;20738;-92
2022/01/04 14:14:09;;;;;;;10.30;7.50;;;10.70;99.90;;;;;;10202405;29;20247;-91
2022/01/04 14:19:13;;;;;;;16.80;12.00;;;11.10;99.90;;;;;;10176908;29;20240;-92
2022/01/04 14:24:47;;;;;;;17.13;12.20;;;10.90;99.90;;;;;;10166572;29;20239;-91
2022/01/04 14:30:00;;;;;;;20.07;12.80;;;10.80;99.90;;;;;;10165733;29;20314;-91
2022/01/04 14:35:19;;;;;;;20.10;13.17;;;10.50;99.90;;;;;;10202912;29;20251;-91
2022/01/04 14:40:25;;;;;;;20.80;13.40;;;10.50;99.90;;;;;;10221544;29;20280;-91
2022/01/04 14:45:29;;;;;;;21.03;16.00;;;10.50;99.90;;;;;;10246599;28;20625;-91
2022/01/04 14:50:32;;;;;;;22.97;17.10;;;10.20;99.90;;;;;;10209628;29;20245;-92
2022/01/04 14:55:34;;;;;;;23.37;16.63;;;9.70;99.90;;;;;;10171174;29;20294;-93
2022/01/04 15:00:58;;;;;;;23.73;14.10;;;9.60;99.90;;;;;;10189252;29;20269;-92
2022/01/04 15:06:04;;;;;;;17.87;12.77;;;9.80;99.90;;;;;;10189219;29;20236;-91
2022/01/04 15:11:07;;;;;;;20.80;14.50;;;10.20;99.90;;;;;;10188155;29;20656;-92
2022/01/04 15:16:09;;;;;;;29.13;18.23;;;10.40;99.90;;;;;;10200023;29;20247;-92
2022/01/04 15:21:12;;;;;;;6.03;5.30;;;10.10;99.90;;;;;;9492217;29;10000731;-91
2022/01/04 15:26:36;;;;;;;8.23;5.73;;;11.60;99.90;;;;;;10199521;29;20290;-93
2022/01/04 15:31:39;;;;;;;6.57;5.13;;;12.60;99.90;;;;;;10197675;29;20219;-93
2022/01/04 15:36:41;;;;;;;12.03;8.70;;;13.30;99.90;;;;;;10198926;29;20590;-92
2022/01/04 15:41:44;;;;;;;37.23;23.53;;;13.60;99.90;;;;;;10195559;29;20254;-92
2022/01/04 15:46:49;;;;;;;17.07;10.83;;;12.50;99.90;;;;;;10195950;29;20618;-92
2022/01/04 15:51:52;;;;;;;55.17;29.40;;;12.40;99.90;;;;;;10196181;29;20313;-91
2022/01/04 15:56:55;;;;;;;67.27;36.57;;;12.20;99.90;;;;;;10213807;29;20211;-93
2022/01/04 16:01:57;;;;;;;74.80;41.83;;;11.50;99.90;;;;;;10187252;29;20278;-92
2022/01/04 16:07:00;;;;;;;51.90;29.13;;;11.40;99.90;;;;;;10175739;29;20264;-92
2022/01/04 16:12:04;;;;;;;27.97;17.80;;;11.60;99.90;;;;;;10181910;29;20285;-91
2022/01/04 16:17:20;;;;;;;81.57;45.37;;;11.30;99.90;;;;;;10189296;29;20304;-91
2022/01/04 16:22:22;;;;;;;33.80;21.97;;;10.60;99.90;;;;;;10186507;29;20257;-93
2022/01/04 16:27:27;;;;;;;49.70;31.50;;;10.60;99.90;;;;;;10206854;29;20285;-91
2022/01/04 16:32:29;;;;;;;43.97;29.47;;;10.80;99.90;;;;;;10208240;29;20249;-92
2022/01/04 16:37:33;;;;;;;53.23;31.77;;;10.10;99.90;;;;;;10209395;29;20296;-92
2022/01/04 16:42:39;;;;;;;55.00;36.20;;;10.40;99.90;;;;;;10190235;29;20263;-90
2022/01/04 16:47:42;;;;;;;25.07;17.00;;;10.20;99.90;;;;;;10215061;29;20231;-92
2022/01/04 16:52:46;;;;;;;42.63;25.63;;;10.70;99.90;;;;;;10209553;29;20243;-90
2022/01/04 16:57:48;;;;;;;29.17;17.27;;;10.00;99.90;;;;;;10208434;29;20920;-90
2022/01/04 17:02:51;;;;;;;24.83;17.30;;;10.00;99.90;;;;;;10205895;29;20264;-89
2022/01/04 17:07:54;;;;;;;11.83;8.60;;;10.20;99.90;;;;;;10208722;29;20232;-91
2022/01/04 17:18:22;;;;;;;19.53;13.73;;;9.20;99.90;;;;;;10087745;29;20716;-92
2022/01/04 17:23:25;;;;;;;21.20;14.57;;;9.30;99.90;;;;;;10097616;29;20313;-91
2022/01/04 17:28:27;;;;;;;20.23;14.27;;;9.10;99.90;;;;;;10082662;29;20755;-92
2022/01/04 17:33:30;;;;;;;17.03;11.47;;;9.10;99.90;;;;;;10090872;29;20945;-94
2022/01/04 17:38:33;;;;;;;11.93;7.20;;;9.60;99.90;;;;;;10105837;29;20651;-92
2022/01/04 17:43:36;;;;;;;10.33;7.53;;;10.90;99.90;;;;;;10108885;29;20737;-90
2022/01/04 17:48:38;;;;;;;11.27;7.80;;;11.00;99.90;;;;;;10071203;29;20276;-91
2022/01/04 17:53:41;;;;;;;14.03;9.90;;;11.80;99.90;;;;;;10136092;29;20258;-91
2022/01/04 17:58:59;;;;;;;9.17;7.30;;;11.90;99.90;;;;;;10182639;29;20294;-92
2022/01/04 18:04:02;;;;;;;10.63;7.57;;;12.60;99.90;;;;;;9866750;29;10000047;-93
2022/01/04 18:09:06;;;;;;;11.13;7.37;;;13.30;99.90;;;;;;10205413;29;20206;-91
2022/01/04 18:14:10;;;;;;;11.67;8.67;;;13.60;99.90;;;;;;10191805;29;20287;-92
2022/01/04 18:19:12;;;;;;;9.13;7.23;;;13.50;99.90;;;;;;10169144;29;20278;-93
2022/01/04 18:24:15;;;;;;;10.47;7.33;;;13.70;99.90;;;;;;10210483;29;20586;-93
2022/01/04 18:29:17;;;;;;;9.80;7.60;;;13.90;99.90;;;;;;10210835;29;20210;-94
2022/01/04 18:34:20;;;;;;;10.87;7.17;;;13.80;99.90;;;;;;10193722;29;20573;-94
2022/01/04 18:39:22;;;;;;;10.37;7.80;;;13.90;99.90;;;;;;10193583;29;20206;-94
2022/01/04 18:44:25;;;;;;;10.90;7.43;;;14.10;99.90;;;;;;10193288;29;20246;-93
2022/01/04 18:49:27;;;;;;;9.90;7.90;;;14.20;99.90;;;;;;10210674;29;20262;-94
2022/01/04 18:54:30;;;;;;;9.87;7.23;;;14.10;99.90;;;;;;10210428;29;20215;-93
2022/01/04 18:59:33;;;;;;;10.10;7.50;;;14.30;99.90;;;;;;10217514;29;20526;-93
2022/01/04 19:04:38;;;;;;;11.50;7.13;;;14.30;99.90;;;;;;10206631;29;20265;-94
2022/01/04 19:09:40;;;;;;;10.17;6.93;;;14.40;99.90;;;;;;10217859;29;20735;-94
2022/01/04 19:14:43;;;;;;;9.60;7.57;;;14.60;99.90;;;;;;10201295;29;20318;-95
2022/01/04 19:19:46;;;;;;;11.53;7.43;;;14.80;99.90;;;;;;10217200;29;20263;-93
2022/01/04 19:24:51;;;;;;;8.47;7.53;;;14.80;99.90;;;;;;10200530;29;20282;-93
2022/01/04 19:29:54;;;;;;;9.77;7.17;;;14.80;99.90;;;;;;10216802;29;20219;-95
2022/01/04 19:40:17;;;;;;;10.50;7.60;;;15.10;99.90;;;;;;10216592;29;20712;-94
2022/01/04 19:45:20;;;;;;;8.70;6.93;;;15.20;99.90;;;;;;10200301;29;20235;-94
2022/01/04 19:50:25;;;;;;;8.50;6.87;;;15.10;99.90;;;;;;10200514;29;20214;-93
2022/01/04 19:55:27;;;;;;;8.40;6.67;;;15.10;99.90;;;;;;10199789;29;20266;-94
2022/01/04 20:00:30;;;;;;;9.43;6.33;;;15.10;99.90;;;;;;10220893;29;20226;-95
2022/01/04 20:05:33;;;;;;;11.47;7.33;;;15.10;99.90;;;;;;10257791;29;20230;-94
2022/01/04 20:10:35;;;;;;;8.53;6.50;;;15.20;99.90;;;;;;10176381;29;20204;-93
2022/01/04 20:15:40;;;;;;;9.33;6.70;;;15.20;99.90;;;;;;10197604;29;20211;-94
2022/01/04 20:20:43;;;;;;;9.17;7.00;;;15.20;99.90;;;;;;10207739;28;20267;-91
2022/01/04 20:25:47;;;;;;;8.50;6.47;;;15.20;99.90;;;;;;10215511;29;20246;-93
2022/01/04 20:30:50;;;;;;;9.77;6.53;;;15.20;99.90;;;;;;10211084;28;20678;-91
2022/01/04 20:35:52;;;;;;;7.30;6.30;;;15.20;99.90;;;;;;10209491;29;20780;-91
2022/01/04 20:40:55;;;;;;;11.43;7.53;;;15.20;99.90;;;;;;10191129;29;20308;-91
2022/01/04 20:45:57;;;;;;;11.50;7.03;;;15.20;99.90;;;;;;10195365;29;20274;-92
2022/01/04 20:51:01;;;;;;;9.23;6.53;;;15.20;99.90;;;;;;10197926;29;20306;-91
2022/01/04 20:56:04;;;;;;;8.80;6.87;;;15.30;99.90;;;;;;10199562;29;20243;-92
2022/01/04 21:01:07;;;;;;;6.90;5.97;;;15.30;99.90;;;;;;10197808;29;20279;-92
2022/01/04 21:06:10;;;;;;;9.80;6.93;;;15.30;99.90;;;;;;10187310;29;20305;-90
2022/01/04 21:11:33;;;;;;;7.83;6.60;;;15.20;99.90;;;;;;10197453;29;20298;-92
2022/01/04 21:16:36;;;;;;;8.53;6.63;;;15.30;99.90;;;;;;10191009;29;20779;-93
2022/01/04 21:21:38;;;;;;;11.03;7.13;;;15.20;99.90;;;;;;10173741;29;20258;-91
2022/01/04 21:26:41;;;;;;;7.80;6.13;;;15.20;99.90;;;;;;10171421;29;20274;-90
2022/01/04 21:31:44;;;;;;;10.07;6.30;;;15.20;99.90;;;;;;10187103;29;20322;-92
2022/01/04 21:36:46;;;;;;;8.50;6.47;;;15.20;99.90;;;;;;10193906;29;20234;-90
2022/01/04 21:41:52;;;;;;;13.70;9.67;;;15.20;99.90;;;;;;10188765;29;20719;-90
2022/01/04 21:46:55;;;;;;;10.10;8.10;;;13.70;96.70;;;;;;10189982;29;20250;-92
2022/01/04 21:51:59;;;;;;;9.57;6.17;;;14.50;99.90;;;;;;10194818;29;20270;-90
2022/01/04 21:57:02;;;;;;;10.27;5.80;;;15.10;99.90;;;;;;10200129;29;20314;-91
2022/01/04 22:02:04;;;;;;;11.00;6.97;;;15.20;99.90;;;;;;10200718;29;20298;-91
2022/01/04 22:07:07;;;;;;;8.77;6.33;;;15.20;99.90;;;;;;10177300;29;20640;-91
2022/01/04 22:12:10;;;;;;;7.70;5.47;;;15.30;99.90;;;;;;10186737;29;20289;-92
2022/01/04 22:17:12;;;;;;;10.77;5.67;;;15.20;99.90;;;;;;10180607;29;20240;-93
2022/01/04 22:22:15;;;;;;;9.33;6.30;;;15.30;99.90;;;;;;10210875;29;20656;-92
2022/01/04 22:27:18;;;;;;;7.47;5.60;;;15.20;99.90;;;;;;10177314;29;20234;-93
2022/01/04 22:32:22;;;;;;;8.57;6.40;;;15.20;99.90;;;;;;10193161;29;20223;-91
2022/01/04 22:37:24;;;;;;;9.03;5.63;;;15.20;99.90;;;;;;10185184;29;20251;-92
2022/01/04 22:42:28;;;;;;;10.57;6.47;;;15.10;99.90;;;;;;10208062;29;20270;-91
2022/01/04 22:47:30;;;;;;;9.80;6.03;;;15.20;99.90;;;;;;10193057;29;20269;-92
2022/01/04 22:52:33;;;;;;;9.20;6.27;;;15.10;99.90;;;;;;10181574;29;20349;-92
2022/01/04 22:57:35;;;;;;;7.00;6.13;;;15.10;99.90;;;;;;10214496;29;20237;-92
2022/01/04 23:02:38;;;;;;;9.40;5.87;;;15.10;99.90;;;;;;10199382;29;20651;-92
2022/01/04 23:07:41;;;;;;;9.67;6.67;;;15.10;99.90;;;;;;10199011;29;20738;-92
2022/01/04 23:12:44;;;;;;;8.13;6.13;;;14.90;99.90;;;;;;10197599;29;20275;-92
2022/01/04 23:17:47;;;;;;;8.80;5.70;;;15.10;99.90;;;;;;10195115;29;20770;-93
2022/01/04 23:22:55;;;;;;;8.43;5.40;;;14.90;99.90;;;;;;10217132;29;20257;-91
2022/01/04 23:27:58;;;;;;;6.50;5.17;;;15.00;99.90;;;;;;10182396;29;20253;-92
2022/01/04 23:33:01;;;;;;;8.07;5.43;;;15.00;99.90;;;;;;10198669;29;20292;-91
2022/01/04 23:38:05;;;;;;;5.47;4.97;;;15.00;99.90;;;;;;10193635;29;20369;-92
2022/01/04 23:43:07;;;;;;;10.43;6.37;;;14.90;99.90;;;;;;10191393;29;20328;-91
2022/01/04 23:48:10;;;;;;;6.57;4.90;;;14.90;99.90;;;;;;10213709;29;20248;-91
2022/01/04 23:53:13;;;;;;;5.83;5.23;;;15.00;99.90;;;;;;10195585;29;20910;-91
2022/01/04 23:58:15;;;;;;;6.30;4.70;;;15.00;99.90;;;;;;10212974;29;20290;-91
